sensor_id;sensor_type;location;lat;lon;timestamp;pressure;altitude;pressure_sealevel;temperature
21336;BMP180;69435;52.670;13.544;2024-01-11T00:02:19;102453.00;;;-1.60
21336;BMP180;69435;52.670;13.544;2024-01-11T00:05:06;102436.00;;;-1.60
21336;BMP180;69435;52.670;13.544;2024-01-11T00:07:53;102414.00;;;-1.70
21336;BMP180;69435;52.670;13.544;2024-01-11T00:10:39;102408.00;;;-1.60
21336;BMP180;69435;52.670;13.544;2024-01-11T00:13:25;102461.00;;;-1.60
21336;BMP180;69435;52.670;13.544;2024-01-11T00:16:10;102445.00;;;-1.70
21336;BMP180;69435;52.670;13.544;2024-01-11T00:18:57;102416.00;;;-1.60
21336;BMP180;69435;52.670;13.544;2024-01-11T00:21:43;102427.00;;;-1.60
21336;BMP180;69435;52.670;13.544;2024-01-11T00:24:29;102364.00;;;-1.60
21336;BMP180;69435;52.670;13.544;2024-01-11T00:27:15;102425.00;;;-1.60
21336;BMP180;69435;52.670;13.544;2024-01-11T00:30:01;102401.00;;;-1.60
21336;BMP180;69435;52.670;13.544;2024-01-11T00:32:47;102374.00;;;-1.50
21336;BMP180;69435;52.670;13.544;2024-01-11T00:35:33;102389.00;;;-1.50
21336;BMP180;69435;52.670;13.544;2024-01-11T00:38:18;102370.00;;;-1.50
21336;BMP180;69435;52.670;13.544;2024-01-11T00:41:04;102420.00;;;-1.40
21336;BMP180;69435;52.670;13.544;2024-01-11T00:43:50;102371.00;;;-1.40
21336;BMP180;69435;52.670;13.544;2024-01-11T00:46:36;102336.00;;;-1.40
21336;BMP180;69435;52.670;13.544;2024-01-11T00:49:24;102368.00;;;-1.40
21336;BMP180;69435;52.670;13.544;2024-01-11T00:52:10;102357.00;;;-1.40
21336;BMP180;69435;52.670;13.544;2024-01-11T00:54:55;102344.00;;;-1.30
21336;BMP180;69435;52.670;13.544;2024-01-11T00:57:41;102346.00;;;-1.30
21336;BMP180;69435;52.670;13.544;2024-01-11T01:00:27;102353.00;;;-1.30
21336;BMP180;69435;52.670;13.544;2024-01-11T01:03:14;102325.00;;;-1.30
21336;BMP180;69435;52.670;13.544;2024-01-11T01:06:02;102353.00;;;-1.20
21336;BMP180;69435;52.670;13.544;2024-01-11T01:08:48;102329.00;;;-1.20
21336;BMP180;69435;52.670;13.544;2024-01-11T01:11:34;102344.00;;;-1.20
21336;BMP180;69435;52.670;13.544;2024-01-11T01:14:20;102356.00;;;-1.20
21336;BMP180;69435;52.670;13.544;2024-01-11T01:17:06;102361.00;;;-1.20
21336;BMP180;69435;52.670;13.544;2024-01-11T01:19:52;102337.00;;;-1.00
21336;BMP180;69435;52.670;13.544;2024-01-11T01:22:38;102352.00;;;-1.00
21336;BMP180;69435;52.670;13.544;2024-01-11T01:25:24;102314.00;;;-0.90
21336;BMP180;69435;52.670;13.544;2024-01-11T01:28:10;102351.00;;;-0.90
21336;BMP180;69435;52.670;13.544;2024-01-11T01:30:56;102373.00;;;-0.90
21336;BMP180;69435;52.670;13.544;2024-01-11T01:33:42;102369.00;;;-0.80
21336;BMP180;69435;52.670;13.544;2024-01-11T01:36:28;102371.00;;;-0.70
21336;BMP180;69435;52.670;13.544;2024-01-11T01:39:14;102375.00;;;-0.70
21336;BMP180;69435;52.670;13.544;2024-01-11T01:42:00;102365.00;;;-0.60
21336;BMP180;69435;52.670;13.544;2024-01-11T01:44:46;102387.00;;;-0.60
21336;BMP180;69435;52.670;13.544;2024-01-11T01:47:32;102372.00;;;-0.60
21336;BMP180;69435;52.670;13.544;2024-01-11T01:50:18;102383.00;;;-0.50
21336;BMP180;69435;52.670;13.544;2024-01-11T01:53:06;102367.00;;;-0.40
21336;BMP180;69435;52.670;13.544;2024-01-11T01:55:53;102399.00;;;-0.40
21336;BMP180;69435;52.670;13.544;2024-01-11T01:58:39;102368.00;;;-0.30
21336;BMP180;69435;52.670;13.544;2024-01-11T02:01:25;102387.00;;;-0.30
21336;BMP180;69435;52.670;13.544;2024-01-11T02:04:13;102358.00;;;-0.20
21336;BMP180;69435;52.670;13.544;2024-01-11T02:07:02;102388.00;;;-0.20
21336;BMP180;69435;52.670;13.544;2024-01-11T02:09:48;102359.00;;;-0.20
21336;BMP180;69435;52.670;13.544;2024-01-11T02:12:36;102360.00;;;-0.10
21336;BMP180;69435;52.670;13.544;2024-01-11T02:15:23;102393.00;;;-0.10
21336;BMP180;69435;52.670;13.544;2024-01-11T02:18:10;102371.00;;;-0.10
21336;BMP180;69435;52.670;13.544;2024-01-11T02:20:57;102375.00;;;0.00
21336;BMP180;69435;52.670;13.544;2024-01-11T02:24:05;102341.00;;;0.00
21336;BMP180;69435;52.670;13.544;2024-01-11T02:27:03;102349.00;;;0.00
21336;BMP180;69435;52.670;13.544;2024-01-11T02:29:50;102378.00;;;0.10
21336;BMP180;69435;52.670;13.544;2024-01-11T02:32:36;102361.00;;;0.10
21336;BMP180;69435;52.670;13.544;2024-01-11T02:35:24;102335.00;;;0.10
21336;BMP180;69435;52.670;13.544;2024-01-11T02:38:10;102319.00;;;0.20
21336;BMP180;69435;52.670;13.544;2024-01-11T02:40:57;102316.00;;;0.20
21336;BMP180;69435;52.670;13.544;2024-01-11T02:43:48;102348.00;;;0.20
21336;BMP180;69435;52.670;13.544;2024-01-11T02:46:34;102310.00;;;0.20
21336;BMP180;69435;52.670;13.544;2024-01-11T02:49:20;102344.00;;;0.20
21336;BMP180;69435;52.670;13.544;2024-01-11T02:52:06;102325.00;;;0.10
21336;BMP180;69435;52.670;13.544;2024-01-11T02:54:52;102335.00;;;0.10
21336;BMP180;69435;52.670;13.544;2024-01-11T02:57:38;102340.00;;;0.10
21336;BMP180;69435;52.670;13.544;2024-01-11T03:00:24;102344.00;;;0.10
21336;BMP180;69435;52.670;13.544;2024-01-11T03:03:10;102330.00;;;0.20
21336;BMP180;69435;52.670;13.544;2024-01-11T03:05:57;102365.00;;;0.20
21336;BMP180;69435;52.670;13.544;2024-01-11T03:08:42;102344.00;;;0.20
21336;BMP180;69435;52.670;13.544;2024-01-11T03:11:28;102341.00;;;0.20
21336;BMP180;69435;52.670;13.544;2024-01-11T03:14:15;102350.00;;;0.20
21336;BMP180;69435;52.670;13.544;2024-01-11T03:17:00;102355.00;;;0.20
21336;BMP180;69435;52.670;13.544;2024-01-11T03:19:47;102359.00;;;0.20
21336;BMP180;69435;52.670;13.544;2024-01-11T03:22:33;102336.00;;;0.20
21336;BMP180;69435;52.670;13.544;2024-01-11T03:25:19;102312.00;;;0.20
21336;BMP180;69435;52.670;13.544;2024-01-11T03:28:05;102334.00;;;0.30
21336;BMP180;69435;52.670;13.544;2024-01-11T03:30:51;102329.00;;;0.30
21336;BMP180;69435;52.670;13.544;2024-01-11T03:33:37;102292.00;;;0.30
21336;BMP180;69435;52.670;13.544;2024-01-11T03:36:24;102310.00;;;0.30
21336;BMP180;69435;52.670;13.544;2024-01-11T03:39:10;102302.00;;;0.40
21336;BMP180;69435;52.670;13.544;2024-01-11T03:41:56;102279.00;;;0.40
21336;BMP180;69435;52.670;13.544;2024-01-11T03:44:42;102283.00;;;0.40
21336;BMP180;69435;52.670;13.544;2024-01-11T03:47:28;102299.00;;;0.50
21336;BMP180;69435;52.670;13.544;2024-01-11T03:50:14;102292.00;;;0.50
21336;BMP180;69435;52.670;13.544;2024-01-11T03:53:01;102274.00;;;0.60
21336;BMP180;69435;52.670;13.544;2024-01-11T03:55:47;102275.00;;;0.60
21336;BMP180;69435;52.670;13.544;2024-01-11T03:58:33;102306.00;;;0.60
21336;BMP180;69435;52.670;13.544;2024-01-11T04:01:21;102288.00;;;0.70
21336;BMP180;69435;52.670;13.544;2024-01-11T04:04:07;102304.00;;;0.70
21336;BMP180;69435;52.670;13.544;2024-01-11T04:06:53;102284.00;;;0.70
21336;BMP180;69435;52.670;13.544;2024-01-11T04:09:39;102285.00;;;0.70
21336;BMP180;69435;52.670;13.544;2024-01-11T04:12:25;102305.00;;;0.70
21336;BMP180;69435;52.670;13.544;2024-01-11T04:15:14;102294.00;;;0.70
21336;BMP180;69435;52.670;13.544;2024-01-11T04:18:00;102326.00;;;0.80
21336;BMP180;69435;52.670;13.544;2024-01-11T04:20:46;102292.00;;;0.80
21336;BMP180;69435;52.670;13.544;2024-01-11T04:23:32;102265.00;;;0.90
21336;BMP180;69435;52.670;13.544;2024-01-11T04:26:18;102312.00;;;0.90
21336;BMP180;69435;52.670;13.544;2024-01-11T04:29:04;102256.00;;;0.90
21336;BMP180;69435;52.670;13.544;2024-01-11T04:31:50;102309.00;;;0.90
21336;BMP180;69435;52.670;13.544;2024-01-11T04:34:36;102327.00;;;0.90
21336;BMP180;69435;52.670;13.544;2024-01-11T04:37:22;102292.00;;;0.90
21336;BMP180;69435;52.670;13.544;2024-01-11T04:40:08;102244.00;;;1.00
21336;BMP180;69435;52.670;13.544;2024-01-11T04:42:54;102245.00;;;1.00
21336;BMP180;69435;52.670;13.544;2024-01-11T04:45:40;102251.00;;;1.00
21336;BMP180;69435;52.670;13.544;2024-01-11T04:48:26;102248.00;;;1.00
21336;BMP180;69435;52.670;13.544;2024-01-11T04:51:13;102276.00;;;1.10
21336;BMP180;69435;52.670;13.544;2024-01-11T04:53:59;102241.00;;;1.10
21336;BMP180;69435;52.670;13.544;2024-01-11T04:56:46;102267.00;;;1.10
21336;BMP180;69435;52.670;13.544;2024-01-11T04:59:32;102246.00;;;1.10
21336;BMP180;69435;52.670;13.544;2024-01-11T05:02:20;102288.00;;;0.90
21336;BMP180;69435;52.670;13.544;2024-01-11T05:05:06;102306.00;;;1.20
21336;BMP180;69435;52.670;13.544;2024-01-11T05:07:52;102261.00;;;1.20
21336;BMP180;69435;52.670;13.544;2024-01-11T05:10:38;102242.00;;;1.20
21336;BMP180;69435;52.670;13.544;2024-01-11T05:13:24;102218.00;;;1.20
21336;BMP180;69435;52.670;13.544;2024-01-11T05:16:26;102277.00;;;1.20
21336;BMP180;69435;52.670;13.544;2024-01-11T05:19:12;102249.00;;;1.20
21336;BMP180;69435;52.670;13.544;2024-01-11T05:21:58;102241.00;;;1.20
21336;BMP180;69435;52.670;13.544;2024-01-11T05:24:44;102254.00;;;1.20
21336;BMP180;69435;52.670;13.544;2024-01-11T05:27:30;102238.00;;;1.20
21336;BMP180;69435;52.670;13.544;2024-01-11T05:30:16;102265.00;;;1.20
21336;BMP180;69435;52.670;13.544;2024-01-11T05:33:02;102254.00;;;1.20
21336;BMP180;69435;52.670;13.544;2024-01-11T05:35:48;102262.00;;;1.20
21336;BMP180;69435;52.670;13.544;2024-01-11T05:38:35;102274.00;;;1.20
21336;BMP180;69435;52.670;13.544;2024-01-11T05:41:21;102239.00;;;1.30
21336;BMP180;69435;52.670;13.544;2024-01-11T05:44:07;102233.00;;;1.30
21336;BMP180;69435;52.670;13.544;2024-01-11T05:46:53;102254.00;;;1.30
21336;BMP180;69435;52.670;13.544;2024-01-11T05:49:40;102261.00;;;1.30
21336;BMP180;69435;52.670;13.544;2024-01-11T05:52:26;102251.00;;;1.30
21336;BMP180;69435;52.670;13.544;2024-01-11T05:55:12;102255.00;;;1.40
21336;BMP180;69435;52.670;13.544;2024-01-11T05:57:58;102268.00;;;1.40
21336;BMP180;69435;52.670;13.544;2024-01-11T06:00:44;102250.00;;;1.40
21336;BMP180;69435;52.670;13.544;2024-01-11T06:03:30;102269.00;;;1.40
21336;BMP180;69435;52.670;13.544;2024-01-11T06:06:19;102269.00;;;1.50
21336;BMP180;69435;52.670;13.544;2024-01-11T06:09:06;102231.00;;;1.50
21336;BMP180;69435;52.670;13.544;2024-01-11T06:11:52;102257.00;;;1.50
21336;BMP180;69435;52.670;13.544;2024-01-11T06:14:38;102261.00;;;1.50
21336;BMP180;69435;52.670;13.544;2024-01-11T06:17:24;102258.00;;;1.50
21336;BMP180;69435;52.670;13.544;2024-01-11T06:20:10;102218.00;;;1.50
21336;BMP180;69435;52.670;13.544;2024-01-11T06:22:57;102244.00;;;1.50
21336;BMP180;69435;52.670;13.544;2024-01-11T06:25:43;102262.00;;;1.50
21336;BMP180;69435;52.670;13.544;2024-01-11T06:28:29;102251.00;;;1.60
21336;BMP180;69435;52.670;13.544;2024-01-11T06:31:14;102251.00;;;1.70
21336;BMP180;69435;52.670;13.544;2024-01-11T06:34:01;102201.00;;;1.70
21336;BMP180;69435;52.670;13.544;2024-01-11T06:36:47;102229.00;;;1.70
21336;BMP180;69435;52.670;13.544;2024-01-11T06:39:33;102220.00;;;1.70
21336;BMP180;69435;52.670;13.544;2024-01-11T06:42:18;102215.00;;;1.70
21336;BMP180;69435;52.670;13.544;2024-01-11T06:45:05;102220.00;;;1.70
21336;BMP180;69435;52.670;13.544;2024-01-11T06:47:51;102229.00;;;1.70
21336;BMP180;69435;52.670;13.544;2024-01-11T06:50:37;102183.00;;;1.70
21336;BMP180;69435;52.670;13.544;2024-01-11T06:53:23;102189.00;;;1.70
21336;BMP180;69435;52.670;13.544;2024-01-11T06:56:17;102215.00;;;1.80
21336;BMP180;69435;52.670;13.544;2024-01-11T06:59:03;102212.00;;;1.80
21336;BMP180;69435;52.670;13.544;2024-01-11T07:01:49;102204.00;;;1.80
21336;BMP180;69435;52.670;13.544;2024-01-11T07:04:35;102231.00;;;1.80
21336;BMP180;69435;52.670;13.544;2024-01-11T07:07:21;102237.00;;;1.80
21336;BMP180;69435;52.670;13.544;2024-01-11T07:10:07;102214.00;;;1.80
21336;BMP180;69435;52.670;13.544;2024-01-11T07:12:54;102213.00;;;1.80
21336;BMP180;69435;52.670;13.544;2024-01-11T07:15:40;102212.00;;;1.90
21336;BMP180;69435;52.670;13.544;2024-01-11T07:18:26;102187.00;;;1.90
21336;BMP180;69435;52.670;13.544;2024-01-11T07:21:12;102218.00;;;1.90
21336;BMP180;69435;52.670;13.544;2024-01-11T07:23:59;102200.00;;;1.90
21336;BMP180;69435;52.670;13.544;2024-01-11T07:26:45;102204.00;;;2.00
21336;BMP180;69435;52.670;13.544;2024-01-11T07:29:31;102228.00;;;2.00
21336;BMP180;69435;52.670;13.544;2024-01-11T07:32:17;102248.00;;;2.00
21336;BMP180;69435;52.670;13.544;2024-01-11T07:35:04;102224.00;;;2.10
21336;BMP180;69435;52.670;13.544;2024-01-11T07:37:50;102222.00;;;2.10
21336;BMP180;69435;52.670;13.544;2024-01-11T07:40:36;102232.00;;;2.10
21336;BMP180;69435;52.670;13.544;2024-01-11T07:43:22;102185.00;;;2.10
21336;BMP180;69435;52.670;13.544;2024-01-11T07:46:08;102202.00;;;2.20
21336;BMP180;69435;52.670;13.544;2024-01-11T07:48:54;102217.00;;;2.20
21336;BMP180;69435;52.670;13.544;2024-01-11T07:51:40;102187.00;;;2.30
21336;BMP180;69435;52.670;13.544;2024-01-11T07:54:26;102204.00;;;2.30
21336;BMP180;69435;52.670;13.544;2024-01-11T07:57:12;102205.00;;;2.40
21336;BMP180;69435;52.670;13.544;2024-01-11T07:59:58;102218.00;;;2.40
21336;BMP180;69435;52.670;13.544;2024-01-11T08:02:45;102181.00;;;2.40
21336;BMP180;69435;52.670;13.544;2024-01-11T08:05:31;102200.00;;;2.40
21336;BMP180;69435;52.670;13.544;2024-01-11T08:08:17;102193.00;;;2.40
21336;BMP180;69435;52.670;13.544;2024-01-11T08:11:03;102204.00;;;2.50
21336;BMP180;69435;52.670;13.544;2024-01-11T08:13:49;102208.00;;;2.50
21336;BMP180;69435;52.670;13.544;2024-01-11T08:16:35;102207.00;;;2.50
21336;BMP180;69435;52.670;13.544;2024-01-11T08:19:21;102210.00;;;2.60
21336;BMP180;69435;52.670;13.544;2024-01-11T08:22:07;102194.00;;;2.50
21336;BMP180;69435;52.670;13.544;2024-01-11T08:24:52;102203.00;;;2.60
21336;BMP180;69435;52.670;13.544;2024-01-11T08:27:39;102216.00;;;2.60
21336;BMP180;69435;52.670;13.544;2024-01-11T08:30:25;102201.00;;;2.60
21336;BMP180;69435;52.670;13.544;2024-01-11T08:33:11;102204.00;;;2.60
21336;BMP180;69435;52.670;13.544;2024-01-11T08:35:57;102193.00;;;2.60
21336;BMP180;69435;52.670;13.544;2024-01-11T08:38:43;102189.00;;;2.60
21336;BMP180;69435;52.670;13.544;2024-01-11T08:41:29;102207.00;;;2.70
21336;BMP180;69435;52.670;13.544;2024-01-11T08:44:15;102182.00;;;2.70
21336;BMP180;69435;52.670;13.544;2024-01-11T08:47:01;102171.00;;;2.80
21336;BMP180;69435;52.670;13.544;2024-01-11T08:49:49;102182.00;;;2.90
21336;BMP180;69435;52.670;13.544;2024-01-11T08:52:35;102176.00;;;2.90
21336;BMP180;69435;52.670;13.544;2024-01-11T08:55:21;102179.00;;;3.00
21336;BMP180;69435;52.670;13.544;2024-01-11T08:58:08;102159.00;;;3.00
21336;BMP180;69435;52.670;13.544;2024-01-11T09:00:54;102145.00;;;3.10
21336;BMP180;69435;52.670;13.544;2024-01-11T09:03:41;102139.00;;;3.10
21336;BMP180;69435;52.670;13.544;2024-01-11T09:06:27;102117.00;;;3.20
21336;BMP180;69435;52.670;13.544;2024-01-11T09:09:13;102118.00;;;3.20
21336;BMP180;69435;52.670;13.544;2024-01-11T09:11:59;102107.00;;;3.20
21336;BMP180;69435;52.670;13.544;2024-01-11T09:14:45;102140.00;;;3.30
21336;BMP180;69435;52.670;13.544;2024-01-11T09:17:31;102096.00;;;3.30
21336;BMP180;69435;52.670;13.544;2024-01-11T09:20:18;102139.00;;;3.40
21336;BMP180;69435;52.670;13.544;2024-01-11T09:23:05;102171.00;;;3.50
21336;BMP180;69435;52.670;13.544;2024-01-11T09:25:51;102192.00;;;3.50
21336;BMP180;69435;52.670;13.544;2024-01-11T09:28:37;102183.00;;;3.60
21336;BMP180;69435;52.670;13.544;2024-01-11T09:31:23;102166.00;;;3.70
21336;BMP180;69435;52.670;13.544;2024-01-11T09:34:09;102177.00;;;3.70
21336;BMP180;69435;52.670;13.544;2024-01-11T09:36:55;102142.00;;;3.80
21336;BMP180;69435;52.670;13.544;2024-01-11T09:39:44;102149.00;;;3.80
21336;BMP180;69435;52.670;13.544;2024-01-11T09:42:30;102159.00;;;3.80
21336;BMP180;69435;52.670;13.544;2024-01-11T09:45:17;102176.00;;;3.80
21336;BMP180;69435;52.670;13.544;2024-01-11T09:48:06;102150.00;;;3.80
21336;BMP180;69435;52.670;13.544;2024-01-11T09:50:53;102146.00;;;3.80
21336;BMP180;69435;52.670;13.544;2024-01-11T09:53:42;102183.00;;;3.70
21336;BMP180;69435;52.670;13.544;2024-01-11T09:56:28;102146.00;;;3.70
21336;BMP180;69435;52.670;13.544;2024-01-11T09:59:18;102196.00;;;3.70
21336;BMP180;69435;52.670;13.544;2024-01-11T10:02:10;102167.00;;;3.70
21336;BMP180;69435;52.670;13.544;2024-01-11T10:04:57;102185.00;;;3.80
21336;BMP180;69435;52.670;13.544;2024-01-11T10:07:42;102203.00;;;3.80
21336;BMP180;69435;52.670;13.544;2024-01-11T10:10:28;102166.00;;;3.80
21336;BMP180;69435;52.670;13.544;2024-01-11T10:13:16;102185.00;;;3.80
21336;BMP180;69435;52.670;13.544;2024-01-11T10:16:09;102126.00;;;3.80
21336;BMP180;69435;52.670;13.544;2024-01-11T10:18:56;102117.00;;;3.80
21336;BMP180;69435;52.670;13.544;2024-01-11T10:21:43;102130.00;;;3.80
21336;BMP180;69435;52.670;13.544;2024-01-11T10:24:29;102143.00;;;3.80
21336;BMP180;69435;52.670;13.544;2024-01-11T10:27:15;102136.00;;;3.80
21336;BMP180;69435;52.670;13.544;2024-01-11T10:30:01;102162.00;;;3.80
21336;BMP180;69435;52.670;13.544;2024-01-11T10:32:48;102193.00;;;3.90
21336;BMP180;69435;52.670;13.544;2024-01-11T10:35:35;102195.00;;;3.90
21336;BMP180;69435;52.670;13.544;2024-01-11T10:38:24;102176.00;;;4.00
21336;BMP180;69435;52.670;13.544;2024-01-11T10:41:13;102161.00;;;4.00
21336;BMP180;69435;52.670;13.544;2024-01-11T10:44:04;102156.00;;;4.10
21336;BMP180;69435;52.670;13.544;2024-01-11T10:46:55;102163.00;;;4.10
21336;BMP180;69435;52.670;13.544;2024-01-11T10:49:44;102155.00;;;4.10
21336;BMP180;69435;52.670;13.544;2024-01-11T10:52:42;102098.00;;;4.10
21336;BMP180;69435;52.670;13.544;2024-01-11T10:55:34;102097.00;;;4.10
21336;BMP180;69435;52.670;13.544;2024-01-11T10:58:22;102130.00;;;4.10
21336;BMP180;69435;52.670;13.544;2024-01-11T11:01:11;102131.00;;;4.10
21336;BMP180;69435;52.670;13.544;2024-01-11T11:03:57;102147.00;;;4.10
21336;BMP180;69435;52.670;13.544;2024-01-11T11:06:44;102147.00;;;4.10
21336;BMP180;69435;52.670;13.544;2024-01-11T11:09:32;102137.00;;;4.10
21336;BMP180;69435;52.670;13.544;2024-01-11T11:12:22;102118.00;;;4.10
21336;BMP180;69435;52.670;13.544;2024-01-11T11:15:10;102149.00;;;4.10
21336;BMP180;69435;52.670;13.544;2024-01-11T11:17:58;102152.00;;;4.10
21336;BMP180;69435;52.670;13.544;2024-01-11T11:20:45;102174.00;;;4.10
21336;BMP180;69435;52.670;13.544;2024-01-11T11:23:31;102162.00;;;4.10
21336;BMP180;69435;52.670;13.544;2024-01-11T11:26:17;102164.00;;;4.10
21336;BMP180;69435;52.670;13.544;2024-01-11T11:29:04;102195.00;;;4.20
21336;BMP180;69435;52.670;13.544;2024-01-11T11:31:50;102164.00;;;4.10
21336;BMP180;69435;52.670;13.544;2024-01-11T11:34:44;102132.00;;;4.20
21336;BMP180;69435;52.670;13.544;2024-01-11T11:37:30;102174.00;;;4.30
21336;BMP180;69435;52.670;13.544;2024-01-11T11:40:19;102143.00;;;4.30
21336;BMP180;69435;52.670;13.544;2024-01-11T11:43:06;102150.00;;;4.30
21336;BMP180;69435;52.670;13.544;2024-01-11T11:45:53;102114.00;;;4.30
21336;BMP180;69435;52.670;13.544;2024-01-11T11:48:50;102169.00;;;4.30
21336;BMP180;69435;52.670;13.544;2024-01-11T11:51:39;102150.00;;;4.30
21336;BMP180;69435;52.670;13.544;2024-01-11T11:54:27;102125.00;;;4.30
21336;BMP180;69435;52.670;13.544;2024-01-11T11:57:17;102091.00;;;4.40
21336;BMP180;69435;52.670;13.544;2024-01-11T12:00:03;102135.00;;;4.40
21336;BMP180;69435;52.670;13.544;2024-01-11T12:02:56;102115.00;;;4.30
21336;BMP180;69435;52.670;13.544;2024-01-11T12:05:43;102143.00;;;4.30
21336;BMP180;69435;52.670;13.544;2024-01-11T12:08:31;102139.00;;;4.30
21336;BMP180;69435;52.670;13.544;2024-01-11T12:11:21;102145.00;;;4.30
21336;BMP180;69435;52.670;13.544;2024-01-11T12:14:08;102140.00;;;4.40
21336;BMP180;69435;52.670;13.544;2024-01-11T12:16:58;102177.00;;;4.40
21336;BMP180;69435;52.670;13.544;2024-01-11T12:19:44;102154.00;;;4.40
21336;BMP180;69435;52.670;13.544;2024-01-11T12:22:30;102127.00;;;4.40
21336;BMP180;69435;52.670;13.544;2024-01-11T12:25:16;102146.00;;;4.50
21336;BMP180;69435;52.670;13.544;2024-01-11T12:28:02;102150.00;;;4.60
21336;BMP180;69435;52.670;13.544;2024-01-11T12:30:48;102131.00;;;4.60
21336;BMP180;69435;52.670;13.544;2024-01-11T12:33:35;102132.00;;;4.60
21336;BMP180;69435;52.670;13.544;2024-01-11T12:36:23;102119.00;;;4.60
21336;BMP180;69435;52.670;13.544;2024-01-11T12:39:10;102114.00;;;4.70
21336;BMP180;69435;52.670;13.544;2024-01-11T12:41:59;102108.00;;;4.70
21336;BMP180;69435;52.670;13.544;2024-01-11T12:44:45;102092.00;;;4.80
21336;BMP180;69435;52.670;13.544;2024-01-11T12:47:32;102103.00;;;4.80
21336;BMP180;69435;52.670;13.544;2024-01-11T12:50:18;102097.00;;;4.80
21336;BMP180;69435;52.670;13.544;2024-01-11T12:56:07;102085.00;;;4.80
21336;BMP180;69435;52.670;13.544;2024-01-11T12:59:07;102089.00;;;4.80
21336;BMP180;69435;52.670;13.544;2024-01-11T13:01:53;102071.00;;;4.90
21336;BMP180;69435;52.670;13.544;2024-01-11T13:04:40;102109.00;;;4.80
21336;BMP180;69435;52.670;13.544;2024-01-11T13:07:26;102074.00;;;4.90
21336;BMP180;69435;52.670;13.544;2024-01-11T13:10:12;102086.00;;;4.90
21336;BMP180;69435;52.670;13.544;2024-01-11T13:13:00;102062.00;;;4.90
21336;BMP180;69435;52.670;13.544;2024-01-11T13:15:46;102066.00;;;4.90
21336;BMP180;69435;52.670;13.544;2024-01-11T13:18:32;102067.00;;;4.90
21336;BMP180;69435;52.670;13.544;2024-01-11T13:21:18;102050.00;;;4.90
21336;BMP180;69435;52.670;13.544;2024-01-11T13:24:04;102055.00;;;4.90
21336;BMP180;69435;52.670;13.544;2024-01-11T13:26:51;102077.00;;;4.90
21336;BMP180;69435;52.670;13.544;2024-01-11T13:29:36;102044.00;;;4.90
21336;BMP180;69435;52.670;13.544;2024-01-11T13:32:22;102051.00;;;4.90
21336;BMP180;69435;52.670;13.544;2024-01-11T13:35:08;102043.00;;;5.00
21336;BMP180;69435;52.670;13.544;2024-01-11T13:37:54;102050.00;;;5.00
21336;BMP180;69435;52.670;13.544;2024-01-11T13:40:41;102045.00;;;5.00
21336;BMP180;69435;52.670;13.544;2024-01-11T13:43:28;102035.00;;;5.00
21336;BMP180;69435;52.670;13.544;2024-01-11T13:46:14;102029.00;;;4.90
21336;BMP180;69435;52.670;13.544;2024-01-11T13:49:03;102047.00;;;4.90
21336;BMP180;69435;52.670;13.544;2024-01-11T13:51:50;102056.00;;;4.90
21336;BMP180;69435;52.670;13.544;2024-01-11T13:54:36;102041.00;;;4.80
21336;BMP180;69435;52.670;13.544;2024-01-11T13:57:23;102010.00;;;4.80
21336;BMP180;69435;52.670;13.544;2024-01-11T14:00:10;102053.00;;;4.80
21336;BMP180;69435;52.670;13.544;2024-01-11T14:02:59;102025.00;;;4.80
21336;BMP180;69435;52.670;13.544;2024-01-11T14:05:45;102028.00;;;4.80
21336;BMP180;69435;52.670;13.544;2024-01-11T14:08:31;102037.00;;;4.70
21336;BMP180;69435;52.670;13.544;2024-01-11T14:11:17;102053.00;;;4.70
21336;BMP180;69435;52.670;13.544;2024-01-11T14:14:03;102035.00;;;4.70
21336;BMP180;69435;52.670;13.544;2024-01-11T14:16:49;102019.00;;;4.70
21336;BMP180;69435;52.670;13.544;2024-01-11T14:19:37;102040.00;;;4.70
21336;BMP180;69435;52.670;13.544;2024-01-11T14:22:22;102070.00;;;4.60
21336;BMP180;69435;52.670;13.544;2024-01-11T14:25:10;102030.00;;;4.50
21336;BMP180;69435;52.670;13.544;2024-01-11T14:27:58;102045.00;;;4.50
21336;BMP180;69435;52.670;13.544;2024-01-11T14:30:45;102060.00;;;4.50
21336;BMP180;69435;52.670;13.544;2024-01-11T14:33:31;102044.00;;;4.50
21336;BMP180;69435;52.670;13.544;2024-01-11T14:36:17;102037.00;;;4.60
21336;BMP180;69435;52.670;13.544;2024-01-11T14:39:04;102045.00;;;4.60
21336;BMP180;69435;52.670;13.544;2024-01-11T14:41:50;102039.00;;;4.60
21336;BMP180;69435;52.670;13.544;2024-01-11T14:44:36;102043.00;;;4.60
21336;BMP180;69435;52.670;13.544;2024-01-11T14:47:23;102057.00;;;4.60
21336;BMP180;69435;52.670;13.544;2024-01-11T14:50:09;102085.00;;;4.60
21336;BMP180;69435;52.670;13.544;2024-01-11T14:52:55;102056.00;;;4.60
21336;BMP180;69435;52.670;13.544;2024-01-11T14:55:41;102048.00;;;4.60
21336;BMP180;69435;52.670;13.544;2024-01-11T14:58:28;102069.00;;;4.60
21336;BMP180;69435;52.670;13.544;2024-01-11T15:01:14;102086.00;;;4.70
21336;BMP180;69435;52.670;13.544;2024-01-11T15:04:00;102087.00;;;4.60
21336;BMP180;69435;52.670;13.544;2024-01-11T15:06:46;102108.00;;;4.60
21336;BMP180;69435;52.670;13.544;2024-01-11T15:09:33;102096.00;;;4.60
21336;BMP180;69435;52.670;13.544;2024-01-11T15:12:19;102086.00;;;4.70
21336;BMP180;69435;52.670;13.544;2024-01-11T15:15:08;102089.00;;;4.70
21336;BMP180;69435;52.670;13.544;2024-01-11T15:17:55;102085.00;;;4.70
21336;BMP180;69435;52.670;13.544;2024-01-11T15:20:41;102098.00;;;4.60
21336;BMP180;69435;52.670;13.544;2024-01-11T15:23:27;102101.00;;;4.60
21336;BMP180;69435;52.670;13.544;2024-01-11T15:26:13;102097.00;;;4.60
21336;BMP180;69435;52.670;13.544;2024-01-11T15:28:59;102072.00;;;4.60
21336;BMP180;69435;52.670;13.544;2024-01-11T15:31:45;102105.00;;;4.60
21336;BMP180;69435;52.670;13.544;2024-01-11T15:34:31;102088.00;;;4.60
21336;BMP180;69435;52.670;13.544;2024-01-11T15:37:18;102096.00;;;4.60
21336;BMP180;69435;52.670;13.544;2024-01-11T15:40:06;102077.00;;;4.60
21336;BMP180;69435;52.670;13.544;2024-01-11T15:42:53;102100.00;;;4.70
21336;BMP180;69435;52.670;13.544;2024-01-11T15:45:39;102084.00;;;4.60
21336;BMP180;69435;52.670;13.544;2024-01-11T15:48:25;102074.00;;;4.60